sensor_id;sensor_type;location;lat;lon;timestamp;pressure;altitude;pressure_sealevel;temperature;humidity
56038;BME280;41907;47.848;9.000;2023-03-19T00:01:45;95458.72;;;9.65;87.40
56038;BME280;41907;47.848;9.000;2023-03-19T00:04:11;95457.13;;;9.55;85.96
56038;BME280;41907;47.848;9.000;2023-03-19T00:06:36;95454.91;;;9.49;87.06
56038;BME280;41907;47.848;9.000;2023-03-19T00:09:01;95451.91;;;9.42;89.14
56038;BME280;41907;47.848;9.000;2023-03-19T00:11:28;95463.56;;;9.23;91.29
56038;BME280;41907;47.848;9.000;2023-03-19T00:13:53;95461.84;;;9.27;89.61
56038;BME280;41907;47.848;9.000;2023-03-19T00:16:18;95465.56;;;9.49;88.72
56038;BME280;41907;47.848;9.000;2023-03-19T00:18:44;95462.06;;;9.70;87.85
56038;BME280;41907;47.848;9.000;2023-03-19T00:21:10;95461.56;;;9.68;88.87
56038;BME280;41907;47.848;9.000;2023-03-19T00:23:35;95467.00;;;9.55;90.74
56038;BME280;41907;47.848;9.000;2023-03-19T00:26:02;95465.91;;;9.56;91.44
56038;BME280;41907;47.848;9.000;2023-03-19T00:28:28;95467.13;;;9.50;92.27
56038;BME280;41907;47.848;9.000;2023-03-19T00:30:53;95466.66;;;9.48;91.96
56038;BME280;41907;47.848;9.000;2023-03-19T00:33:19;95472.75;;;9.48;92.03
56038;BME280;41907;47.848;9.000;2023-03-19T00:35:45;95478.91;;;9.57;91.45
56038;BME280;41907;47.848;9.000;2023-03-19T00:38:10;95474.94;;;9.46;91.91
56038;BME280;41907;47.848;9.000;2023-03-19T00:40:36;95482.03;;;9.51;91.81
56038;BME280;41907;47.848;9.000;2023-03-19T00:43:01;95479.91;;;9.70;90.98
56038;BME280;41907;47.848;9.000;2023-03-19T00:45:27;95485.28;;;9.79;89.62
56038;BME280;41907;47.848;9.000;2023-03-19T00:47:55;95499.72;;;9.86;88.85
56038;BME280;41907;47.848;9.000;2023-03-19T00:50:20;95492.53;;;9.95;87.62
56038;BME280;41907;47.848;9.000;2023-03-19T00:52:45;95490.44;;;9.84;85.66
56038;BME280;41907;47.848;9.000;2023-03-19T00:55:11;95494.16;;;9.74;86.75
56038;BME280;41907;47.848;9.000;2023-03-19T00:57:36;95496.34;;;9.72;86.33
56038;BME280;41907;47.848;9.000;2023-03-19T01:00:02;95495.66;;;9.89;85.20
56038;BME280;41907;47.848;9.000;2023-03-19T01:02:30;95501.75;;;9.89;88.05
56038;BME280;41907;47.848;9.000;2023-03-19T01:04:55;95505.31;;;9.76;89.59
56038;BME280;41907;47.848;9.000;2023-03-19T01:07:20;95506.56;;;9.79;90.06
56038;BME280;41907;47.848;9.000;2023-03-19T01:09:46;95510.34;;;9.86;90.52
56038;BME280;41907;47.848;9.000;2023-03-19T01:12:11;95512.03;;;9.74;91.72
56038;BME280;41907;47.848;9.000;2023-03-19T01:14:37;95510.16;;;9.74;90.63
56038;BME280;41907;47.848;9.000;2023-03-19T01:17:02;95517.53;;;9.77;88.75
56038;BME280;41907;47.848;9.000;2023-03-19T01:19:28;95516.38;;;9.61;90.69
56038;BME280;41907;47.848;9.000;2023-03-19T01:21:54;95521.69;;;9.61;91.05
56038;BME280;41907;47.848;9.000;2023-03-19T01:24:19;95524.09;;;9.71;90.46
56038;BME280;41907;47.848;9.000;2023-03-19T01:26:45;95515.13;;;9.67;91.16
56038;BME280;41907;47.848;9.000;2023-03-19T01:29:10;95517.94;;;9.62;92.29
56038;BME280;41907;47.848;9.000;2023-03-19T01:31:36;95519.03;;;9.61;92.90
56038;BME280;41907;47.848;9.000;2023-03-19T01:34:02;95518.81;;;9.49;94.01
56038;BME280;41907;47.848;9.000;2023-03-19T01:36:27;95518.50;;;9.50;94.20
56038;BME280;41907;47.848;9.000;2023-03-19T01:38:53;95522.16;;;9.63;94.20
56038;BME280;41907;47.848;9.000;2023-03-19T01:41:19;95525.00;;;9.66;94.23
56038;BME280;41907;47.848;9.000;2023-03-19T01:43:45;95530.50;;;9.70;95.92
56038;BME280;41907;47.848;9.000;2023-03-19T01:46:24;95527.03;;;9.39;99.40
56038;BME280;41907;47.848;9.000;2023-03-19T01:48:56;95533.22;;;9.25;100.00
56038;BME280;41907;47.848;9.000;2023-03-19T01:51:26;95534.97;;;9.08;100.00
56038;BME280;41907;47.848;9.000;2023-03-19T01:53:58;95542.03;;;8.90;100.00
56038;BME280;41907;47.848;9.000;2023-03-19T01:56:32;95531.63;;;8.80;100.00
56038;BME280;41907;47.848;9.000;2023-03-19T01:59:08;95541.09;;;8.86;100.00
56038;BME280;41907;47.848;9.000;2023-03-19T02:01:45;95543.31;;;8.92;100.00
56038;BME280;41907;47.848;9.000;2023-03-19T02:04:13;95535.41;;;9.01;99.98
56038;BME280;41907;47.848;9.000;2023-03-19T02:06:40;95536.31;;;9.19;99.10
56038;BME280;41907;47.848;9.000;2023-03-19T02:09:06;95537.69;;;9.16;98.58
56038;BME280;41907;47.848;9.000;2023-03-19T02:11:31;95542.16;;;9.07;98.89
56038;BME280;41907;47.848;9.000;2023-03-19T02:13:57;95545.56;;;9.21;97.68
56038;BME280;41907;47.848;9.000;2023-03-19T02:16:22;95552.81;;;9.29;97.53
56038;BME280;41907;47.848;9.000;2023-03-19T02:18:48;95549.59;;;9.19;98.82
56038;BME280;41907;47.848;9.000;2023-03-19T02:21:15;95552.00;;;9.07;99.81
56038;BME280;41907;47.848;9.000;2023-03-19T02:26:16;95548.47;;;9.11;100.00
56038;BME280;41907;47.848;9.000;2023-03-19T02:28:45;95549.91;;;8.95;100.00
56038;BME280;41907;47.848;9.000;2023-03-19T02:31:12;95551.53;;;8.82;100.00
56038;BME280;41907;47.848;9.000;2023-03-19T02:33:38;95546.00;;;8.79;100.00
56038;BME280;41907;47.848;9.000;2023-03-19T02:36:06;95547.59;;;8.80;100.00
56038;BME280;41907;47.848;9.000;2023-03-19T02:38:33;95553.75;;;8.89;100.00
56038;BME280;41907;47.848;9.000;2023-03-19T02:41:02;95554.22;;;9.05;100.00
56038;BME280;41907;47.848;9.000;2023-03-19T02:43:30;95557.97;;;9.04;100.00
56038;BME280;41907;47.848;9.000;2023-03-19T02:45:56;95556.56;;;9.06;100.00
56038;BME280;41907;47.848;9.000;2023-03-19T02:48:22;95562.56;;;9.12;100.00
56038;BME280;41907;47.848;9.000;2023-03-19T02:50:48;95573.63;;;9.05;100.00
56038;BME280;41907;47.848;9.000;2023-03-19T02:53:13;95575.72;;;8.94;100.00
56038;BME280;41907;47.848;9.000;2023-03-19T02:55:40;95582.28;;;8.97;100.00
56038;BME280;41907;47.848;9.000;2023-03-19T02:58:06;95564.53;;;8.84;100.00
56038;BME280;41907;47.848;9.000;2023-03-19T03:00:31;95571.72;;;8.83;100.00
56038;BME280;41907;47.848;9.000;2023-03-19T03:02:57;95567.19;;;8.70;100.00
56038;BME280;41907;47.848;9.000;2023-03-19T03:05:22;95568.63;;;8.54;100.00
56038;BME280;41907;47.848;9.000;2023-03-19T03:07:48;95576.00;;;8.57;100.00
56038;BME280;41907;47.848;9.000;2023-03-19T03:10:14;95578.16;;;8.55;100.00
56038;BME280;41907;47.848;9.000;2023-03-19T03:12:39;95576.31;;;8.55;100.00
56038;BME280;41907;47.848;9.000;2023-03-19T03:15:05;95579.47;;;8.57;100.00
56038;BME280;41907;47.848;9.000;2023-03-19T03:17:32;95581.63;;;8.55;100.00
56038;BME280;41907;47.848;9.000;2023-03-19T03:19:58;95573.16;;;8.53;100.00
56038;BME280;41907;47.848;9.000;2023-03-19T03:22:23;95587.22;;;8.54;100.00
56038;BME280;41907;47.848;9.000;2023-03-19T03:24:48;95591.06;;;8.62;100.00
56038;BME280;41907;47.848;9.000;2023-03-19T03:27:14;95580.28;;;8.80;100.00
56038;BME280;41907;47.848;9.000;2023-03-19T03:29:39;95587.19;;;8.81;100.00
56038;BME280;41907;47.848;9.000;2023-03-19T03:32:05;95581.06;;;8.81;100.00
56038;BME280;41907;47.848;9.000;2023-03-19T03:34:31;95592.63;;;8.76;100.00
56038;BME280;41907;47.848;9.000;2023-03-19T03:36:56;95587.66;;;8.83;100.00
56038;BME280;41907;47.848;9.000;2023-03-19T03:39:21;95593.94;;;8.87;100.00
56038;BME280;41907;47.848;9.000;2023-03-19T03:41:47;95600.81;;;8.66;100.00
56038;BME280;41907;47.848;9.000;2023-03-19T03:44:13;95598.44;;;8.51;100.00
56038;BME280;41907;47.848;9.000;2023-03-19T03:46:39;95603.06;;;8.59;100.00
56038;BME280;41907;47.848;9.000;2023-03-19T03:49:04;95611.91;;;8.82;100.00
56038;BME280;41907;47.848;9.000;2023-03-19T03:51:30;95611.31;;;8.71;100.00
56038;BME280;41907;47.848;9.000;2023-03-19T03:53:55;95614.69;;;8.77;100.00
56038;BME280;41907;47.848;9.000;2023-03-19T03:56:20;95616.25;;;8.64;100.00
56038;BME280;41907;47.848;9.000;2023-03-19T03:58:46;95615.38;;;8.55;100.00
56038;BME280;41907;47.848;9.000;2023-03-19T04:01:15;95613.13;;;8.48;100.00
56038;BME280;41907;47.848;9.000;2023-03-19T04:03:41;95615.38;;;8.55;100.00
56038;BME280;41907;47.848;9.000;2023-03-19T04:06:06;95629.84;;;8.76;100.00
56038;BME280;41907;47.848;9.000;2023-03-19T04:08:32;95627.47;;;8.75;100.00
56038;BME280;41907;47.848;9.000;2023-03-19T04:10:57;95628.66;;;8.69;100.00
56038;BME280;41907;47.848;9.000;2023-03-19T04:13:23;95639.59;;;8.53;100.00
56038;BME280;41907;47.848;9.000;2023-03-19T04:15:49;95638.22;;;8.56;100.00
56038;BME280;41907;47.848;9.000;2023-03-19T04:18:14;95646.41;;;8.46;100.00
56038;BME280;41907;47.848;9.000;2023-03-19T04:20:40;95643.34;;;8.52;100.00
56038;BME280;41907;47.848;9.000;2023-03-19T04:23:06;95642.66;;;8.47;100.00
56038;BME280;41907;47.848;9.000;2023-03-19T04:25:31;95644.34;;;8.56;100.00
56038;BME280;41907;47.848;9.000;2023-03-19T04:27:57;95646.56;;;8.49;100.00
56038;BME280;41907;47.848;9.000;2023-03-19T04:30:23;95641.75;;;8.51;100.00
56038;BME280;41907;47.848;9.000;2023-03-19T04:32:48;95649.16;;;8.54;100.00
56038;BME280;41907;47.848;9.000;2023-03-19T04:35:14;95649.84;;;8.46;100.00
56038;BME280;41907;47.848;9.000;2023-03-19T04:37:39;95653.88;;;8.44;100.00
56038;BME280;41907;47.848;9.000;2023-03-19T04:40:05;95652.50;;;8.46;100.00
56038;BME280;41907;47.848;9.000;2023-03-19T04:42:31;95648.34;;;8.40;100.00
56038;BME280;41907;47.848;9.000;2023-03-19T04:44:56;95651.69;;;8.32;100.00
56038;BME280;41907;47.848;9.000;2023-03-19T04:47:22;95648.34;;;8.40;100.00
56038;BME280;41907;47.848;9.000;2023-03-19T04:49:47;95657.44;;;8.39;100.00
56038;BME280;41907;47.848;9.000;2023-03-19T04:52:13;95655.81;;;8.25;100.00
56038;BME280;41907;47.848;9.000;2023-03-19T04:54:38;95661.03;;;8.30;100.00
56038;BME280;41907;47.848;9.000;2023-03-19T04:57:04;95666.69;;;8.55;100.00
56038;BME280;41907;47.848;9.000;2023-03-19T04:59:29;95675.91;;;8.72;100.00
56038;BME280;41907;47.848;9.000;2023-03-19T05:01:55;95672.75;;;8.70;100.00
56038;BME280;41907;47.848;9.000;2023-03-19T05:04:20;95676.13;;;8.62;100.00
56038;BME280;41907;47.848;9.000;2023-03-19T05:06:47;95682.53;;;8.47;100.00
56038;BME280;41907;47.848;9.000;2023-03-19T05:09:12;95678.59;;;8.44;100.00
56038;BME280;41907;47.848;9.000;2023-03-19T05:11:38;95681.00;;;8.27;100.00
56038;BME280;41907;47.848;9.000;2023-03-19T05:14:03;95673.72;;;8.19;100.00
56038;BME280;41907;47.848;9.000;2023-03-19T05:16:28;95678.41;;;8.08;100.00
56038;BME280;41907;47.848;9.000;2023-03-19T05:18:54;95675.84;;;8.03;100.00
56038;BME280;41907;47.848;9.000;2023-03-19T05:21:20;95679.72;;;8.11;100.00
56038;BME280;41907;47.848;9.000;2023-03-19T05:23:46;95684.91;;;8.16;100.00
56038;BME280;41907;47.848;9.000;2023-03-19T05:26:16;95679.38;;;8.12;100.00
56038;BME280;41907;47.848;9.000;2023-03-19T05:28:42;95680.97;;;8.00;100.00
56038;BME280;41907;47.848;9.000;2023-03-19T05:31:08;95682.09;;;7.94;100.00
56038;BME280;41907;47.848;9.000;2023-03-19T05:33:33;95680.41;;;7.84;100.00
56038;BME280;41907;47.848;9.000;2023-03-19T05:35:59;95683.38;;;7.82;100.00
56038;BME280;41907;47.848;9.000;2023-03-19T05:38:25;95681.69;;;7.73;100.00
56038;BME280;41907;47.848;9.000;2023-03-19T05:40:50;95683.66;;;7.81;100.00
56038;BME280;41907;47.848;9.000;2023-03-19T05:43:16;95686.81;;;7.83;100.00
56038;BME280;41907;47.848;9.000;2023-03-19T05:45:42;95687.50;;;7.89;100.00
56038;BME280;41907;47.848;9.000;2023-03-19T05:48:07;95695.38;;;7.94;100.00
56038;BME280;41907;47.848;9.000;2023-03-19T05:50:33;95694.91;;;7.92;100.00
56038;BME280;41907;47.848;9.000;2023-03-19T05:52:59;95688.94;;;8.00;100.00
56038;BME280;41907;47.848;9.000;2023-03-19T05:55:24;95691.41;;;8.10;100.00
56038;BME280;41907;47.848;9.000;2023-03-19T05:57:50;95689.09;;;8.03;100.00
56038;BME280;41907;47.848;9.000;2023-03-19T06:00:16;95696.50;;;8.06;100.00
56038;BME280;41907;47.848;9.000;2023-03-19T06:02:42;95699.34;;;7.96;100.00
56038;BME280;41907;47.848;9.000;2023-03-19T06:05:08;95692.31;;;7.87;100.00
56038;BME280;41907;47.848;9.000;2023-03-19T06:07:34;95693.91;;;7.88;100.00
56038;BME280;41907;47.848;9.000;2023-03-19T06:10:00;95704.00;;;7.85;100.00
56038;BME280;41907;47.848;9.000;2023-03-19T06:12:25;95712.81;;;8.00;100.00
56038;BME280;41907;47.848;9.000;2023-03-19T06:14:51;95710.69;;;8.15;100.00
56038;BME280;41907;47.848;9.000;2023-03-19T06:17:16;95711.75;;;8.33;100.00
56038;BME280;41907;47.848;9.000;2023-03-19T06:19:42;95718.34;;;8.49;100.00
56038;BME280;41907;47.848;9.000;2023-03-19T06:22:07;95715.22;;;8.61;100.00
56038;BME280;41907;47.848;9.000;2023-03-19T06:24:33;95724.47;;;8.64;100.00
56038;BME280;41907;47.848;9.000;2023-03-19T06:26:58;95724.56;;;8.72;100.00
56038;BME280;41907;47.848;9.000;2023-03-19T06:29:24;95722.19;;;8.71;100.00
56038;BME280;41907;47.848;9.000;2023-03-19T06:31:50;95727.34;;;8.67;100.00
56038;BME280;41907;47.848;9.000;2023-03-19T06:34:16;95716.72;;;8.67;100.00
56038;BME280;41907;47.848;9.000;2023-03-19T06:36:42;95719.56;;;8.57;100.00
56038;BME280;41907;47.848;9.000;2023-03-19T06:39:07;95721.00;;;8.49;100.00
56038;BME280;41907;47.848;9.000;2023-03-19T06:41:33;95716.25;;;8.33;100.00
56038;BME280;41907;47.848;9.000;2023-03-19T06:43:58;95707.50;;;8.32;100.00
56038;BME280;41907;47.848;9.000;2023-03-19T06:46:24;95708.38;;;8.28;100.00
56038;BME280;41907;47.848;9.000;2023-03-19T06:48:49;95721.50;;;8.38;100.00
56038;BME280;41907;47.848;9.000;2023-03-19T06:51:14;95716.59;;;8.45;100.00
56038;BME280;41907;47.848;9.000;2023-03-19T06:53:40;95710.09;;;8.37;100.00
56038;BME280;41907;47.848;9.000;2023-03-19T06:56:05;95706.50;;;8.28;100.00
56038;BME280;41907;47.848;9.000;2023-03-19T06:58:30;95707.50;;;8.32;100.00
56038;BME280;41907;47.848;9.000;2023-03-19T07:00:56;95707.50;;;8.32;100.00
56038;BME280;41907;47.848;9.000;2023-03-19T07:03:22;95707.34;;;8.23;100.00
56038;BME280;41907;47.848;9.000;2023-03-19T07:05:49;95710.41;;;8.31;100.00
56038;BME280;41907;47.848;9.000;2023-03-19T07:08:15;95708.28;;;8.33;100.00
56038;BME280;41907;47.848;9.000;2023-03-19T07:10:40;95708.94;;;8.25;100.00
56038;BME280;41907;47.848;9.000;2023-03-19T07:13:06;95711.75;;;8.33;100.00
56038;BME280;41907;47.848;9.000;2023-03-19T07:15:32;95720.59;;;8.42;100.00
56038;BME280;41907;47.848;9.000;2023-03-19T07:17:58;95720.25;;;8.49;100.00
56038;BME280;41907;47.848;9.000;2023-03-19T07:20:23;95716.91;;;8.57;100.00
56038;BME280;41907;47.848;9.000;2023-03-19T07:22:51;95727.81;;;8.83;100.00
56038;BME280;41907;47.848;9.000;2023-03-19T07:25:16;95733.63;;;9.12;100.00
56038;BME280;41907;47.848;9.000;2023-03-19T07:27:42;95734.78;;;9.33;100.00
56038;BME280;41907;47.848;9.000;2023-03-19T07:30:08;95724.88;;;9.48;100.00
56038;BME280;41907;47.848;9.000;2023-03-19T07:32:34;95736.66;;;9.69;100.00
56038;BME280;41907;47.848;9.000;2023-03-19T07:35:00;95739.06;;;9.79;100.00
56038;BME280;41907;47.848;9.000;2023-03-19T07:37:25;95734.59;;;9.88;100.00
56038;BME280;41907;47.848;9.000;2023-03-19T07:39:51;95732.28;;;9.95;100.00
56038;BME280;41907;47.848;9.000;2023-03-19T07:42:16;95733.09;;;9.96;100.00
56038;BME280;41907;47.848;9.000;2023-03-19T07:44:42;95733.94;;;10.05;100.00
56038;BME280;41907;47.848;9.000;2023-03-19T07:47:07;95732.78;;;10.20;100.00
56038;BME280;41907;47.848;9.000;2023-03-19T07:49:33;95736.19;;;10.34;100.00
56038;BME280;41907;47.848;9.000;2023-03-19T07:51:58;95736.47;;;10.32;100.00
56038;BME280;41907;47.848;9.000;2023-03-19T07:54:23;95733.75;;;10.46;100.00
56038;BME280;41907;47.848;9.000;2023-03-19T07:56:49;95728.34;;;10.68;100.00
56038;BME280;41907;47.848;9.000;2023-03-19T07:59:14;95731.16;;;10.63;100.00
56038;BME280;41907;47.848;9.000;2023-03-19T08:01:39;95728.72;;;10.84;100.00
56038;BME280;41907;47.848;9.000;2023-03-19T08:04:05;95729.84;;;10.92;100.00
56038;BME280;41907;47.848;9.000;2023-03-19T08:06:30;95726.94;;;11.10;100.00
56038;BME280;41907;47.848;9.000;2023-03-19T08:08:56;95731.44;;;11.01;100.00
56038;BME280;41907;47.848;9.000;2023-03-19T08:11:22;95728.94;;;11.05;100.00
56038;BME280;41907;47.848;9.000;2023-03-19T08:13:47;95731.28;;;11.06;100.00
56038;BME280;41907;47.848;9.000;2023-03-19T08:16:12;95727.22;;;11.09;99.94
56038;BME280;41907;47.848;9.000;2023-03-19T08:18:38;95728.13;;;11.04;99.16
56038;BME280;41907;47.848;9.000;2023-03-19T08:21:03;95723.94;;;11.12;98.33
56038;BME280;41907;47.848;9.000;2023-03-19T08:23:30;95726.63;;;11.12;97.70
56038;BME280;41907;47.848;9.000;2023-03-19T08:25:55;95732.88;;;11.16;96.73
56038;BME280;41907;47.848;9.000;2023-03-19T08:28:21;95732.13;;;11.24;97.36
56038;BME280;41907;47.848;9.000;2023-03-19T08:30:47;95734.03;;;11.32;98.15
56038;BME280;41907;47.848;9.000;2023-03-19T08:33:12;95744.28;;;11.47;96.33
56038;BME280;41907;47.848;9.000;2023-03-19T08:35:37;95740.34;;;11.53;97.57
56038;BME280;41907;47.848;9.000;2023-03-19T08:38:03;95743.19;;;11.74;96.46
56038;BME280;41907;47.848;9.000;2023-03-19T08:40:28;95742.75;;;11.98;92.71
56038;BME280;41907;47.848;9.000;2023-03-19T08:42:55;95744.75;;;12.27;91.56
56038;BME280;41907;47.848;9.000;2023-03-19T08:45:21;95745.78;;;13.87;86.88
56038;BME280;41907;47.848;9.000;2023-03-19T08:47:47;95738.38;;;15.43;76.43
56038;BME280;41907;47.848;9.000;2023-03-19T08:50:14;95733.56;;;15.12;71.59
56038;BME280;41907;47.848;9.000;2023-03-19T08:52:39;95731.06;;;14.59;77.55
56038;BME280;41907;47.848;9.000;2023-03-19T08:55:05;95749.34;;;13.91;79.45
56038;BME280;41907;47.848;9.000;2023-03-19T08:57:31;95749.19;;;14.08;77.26
56038;BME280;41907;47.848;9.000;2023-03-19T08:59:57;95744.25;;;13.77;78.27
56038;BME280;41907;47.848;9.000;2023-03-19T09:02:22;95749.50;;;14.48;76.06
56038;BME280;41907;47.848;9.000;2023-03-19T09:04:48;95736.94;;;14.97;70.11
56038;BME280;41907;47.848;9.000;2023-03-19T09:07:13;95743.44;;;15.57;70.14
56038;BME280;41907;47.848;9.000;2023-03-19T09:09:43;95743.25;;;16.73;63.76
56038;BME280;41907;47.848;9.000;2023-03-19T09:12:12;95746.91;;;18.56;50.14
56038;BME280;41907;47.848;9.000;2023-03-19T09:14:38;95742.28;;;19.71;49.58
56038;BME280;41907;47.848;9.000;2023-03-19T09:17:04;95742.34;;;19.25;48.12
56038;BME280;41907;47.848;9.000;2023-03-19T09:19:30;95749.28;;;18.57;48.87
56038;BME280;41907;47.848;9.000;2023-03-19T09:21:55;95752.41;;;18.21;50.94
56038;BME280;41907;47.848;9.000;2023-03-19T09:24:21;95750.16;;;17.69;53.75
56038;BME280;41907;47.848;9.000;2023-03-19T09:26:46;95744.91;;;17.25;52.92
56038;BME280;41907;47.848;9.000;2023-03-19T09:29:12;95742.78;;;16.71;53.33
56038;BME280;41907;47.848;9.000;2023-03-19T09:31:38;95745.63;;;17.06;52.67
56038;BME280;41907;47.848;9.000;2023-03-19T09:34:03;95748.78;;;17.28;52.38
56038;BME280;41907;47.848;9.000;2023-03-19T09:36:29;95745.41;;;18.78;50.43
56038;BME280;41907;47.848;9.000;2023-03-19T09:38:54;95739.81;;;20.18;45.58
56038;BME280;41907;47.848;9.000;2023-03-19T09:41:43;95749.47;;;22.64;41.31
56038;BME280;41907;47.848;9.000;2023-03-19T09:44:42;95748.81;;;23.21;37.65
56038;BME280;41907;47.848;9.000;2023-03-19T09:49:48;95752.66;;;22.95;36.28
56038;BME280;41907;47.848;9.000;2023-03-19T09:54:51;95746.09;;;23.46;34.25
56038;BME280;41907;47.848;9.000;2023-03-19T09:57:21;95747.94;;;22.71;35.55
56038;BME280;41907;47.848;9.000;2023-03-19T09:59:46;95736.75;;;21.96;36.82
56038;BME280;41907;47.848;9.000;2023-03-19T10:05:17;95734.41;;;21.95;36.47
56038;BME280;41907;47.848;9.000;2023-03-19T10:08:55;95721.66;;;20.93;37.72
56038;BME280;41907;47.848;9.000;2023-03-19T10:16:15;95717.66;;;20.79;39.11
56038;BME280;41907;47.848;9.000;2023-03-19T10:18:46;95709.78;;;20.67;39.51
56038;BME280;41907;47.848;9.000;2023-03-19T10:21:20;95716.28;;;21.00;38.86
56038;BME280;41907;47.848;9.000;2023-03-19T10:24:03;95714.25;;;21.96;35.85
56038;BME280;41907;47.848;9.000;2023-03-19T10:26:33;95711.38;;;22.57;35.55
56038;BME280;41907;47.848;9.000;2023-03-19T10:29:13;95717.25;;;22.70;35.65
56038;BME280;41907;47.848;9.000;2023-03-19T10:34:34;95718.16;;;24.57;31.59
56038;BME280;41907;47.848;9.000;2023-03-19T10:39:29;95704.63;;;21.40;36.80
56038;BME280;41907;47.848;9.000;2023-03-19T10:45:17;95704.72;;;21.61;37.80
56038;BME280;41907;47.848;9.000;2023-03-19T10:47:44;95704.84;;;20.36;37.84
56038;BME280;41907;47.848;9.000;2023-03-19T10:50:18;95704.03;;;18.97;41.16
56038;BME280;41907;47.848;9.000;2023-03-19T10:52:49;95706.50;;;18.82;42.00
56038;BME280;41907;47.848;9.000;2023-03-19T10:55:28;95710.06;;;18.25;42.62
56038;BME280;41907;47.848;9.000;2023-03-19T10:58:19;95708.94;;;18.26;43.61
56038;BME280;41907;47.848;9.000;2023-03-19T11:00:46;95705.72;;;19.05;41.85
56038;BME280;41907;47.848;9.000;2023-03-19T11:06:14;95708.78;;;18.57;42.03
56038;BME280;41907;47.848;9.000;2023-03-19T11:08:42;95697.28;;;19.36;42.16
56038;BME280;41907;47.848;9.000;2023-03-19T11:11:34;95705.84;;;20.61;39.35
56038;BME280;41907;47.848;9.000;2023-03-19T11:14:20;95699.28;;;21.06;37.00
56038;BME280;41907;47.848;9.000;2023-03-19T11:19:33;95699.91;;;17.80;43.65
56038;BME280;41907;47.848;9.000;2023-03-19T11:24:32;95686.25;;;19.71;40.00
56038;BME280;41907;47.848;9.000;2023-03-19T11:27:00;95693.00;;;19.88;40.38
56038;BME280;41907;47.848;9.000;2023-03-19T11:29:27;95687.50;;;19.24;41.87
56038;BME280;41907;47.848;9.000;2023-03-19T11:37:46;95683.47;;;19.97;39.58
56038;BME280;41907;47.848;9.000;2023-03-19T11:51:19;95679.06;;;18.38;42.80
56038;BME280;41907;47.848;9.000;2023-03-19T11:56:43;95675.22;;;17.97;41.34
56038;BME280;41907;47.848;9.000;2023-03-19T12:02:07;95666.09;;;18.67;42.54
56038;BME280;41907;47.848;9.000;2023-03-19T12:04:55;95667.28;;;18.69;41.39
56038;BME280;41907;47.848;9.000;2023-03-19T12:07:33;95661.78;;;19.11;39.98
56038;BME280;41907;47.848;9.000;2023-03-19T12:13:54;95651.06;;;19.71;40.08
56038;BME280;41907;47.848;9.000;2023-03-19T12:15:53;95651.75;;;19.12;40.78
56038;BME280;41907;47.848;9.000;2023-03-19T12:26:02;95644.78;;;18.84;41.31
56038;BME280;41907;47.848;9.000;2023-03-19T12:28:45;95655.09;;;18.14;40.80
56038;BME280;41907;47.848;9.000;2023-03-19T12:34:33;95650.94;;;17.43;45.84
56038;BME280;41907;47.848;9.000;2023-03-19T12:42:38;95647.94;;;17.29;44.59
56038;BME280;41907;47.848;9.000;2023-03-19T12:45:35;95638.06;;;17.17;44.76
56038;BME280;41907;47.848;9.000;2023-03-19T12:48:25;95645.38;;;17.17;44.75
56038;BME280;41907;47.848;9.000;2023-03-19T12:50:55;95634.16;;;17.15;45.16
56038;BME280;41907;47.848;9.000;2023-03-19T12:53:32;95638.19;;;17.05;44.07
56038;BME280;41907;47.848;9.000;2023-03-19T12:56:05;95624.22;;;16.68;43.23
56038;BME280;41907;47.848;9.000;2023-03-19T13:01:46;95622.34;;;16.25;45.53
56038;BME280;41907;47.848;9.000;2023-03-19T13:04:17;95618.97;;;16.44;45.18
56038;BME280;41907;47.848;9.000;2023-03-19T13:06:52;95624.81;;;16.46;45.33
56038;BME280;41907;47.848;9.000;2023-03-19T13:10:03;95618.19;;;16.27;44.79
56038;BME280;41907;47.848;9.000;2023-03-19T13:12:33;95616.00;;;16.02;44.59
56038;BME280;41907;47.848;9.000;2023-03-19T13:15:07;95615.44;;;15.96;45.58
56038;BME280;41907;47.848;9.000;2023-03-19T13:20:15;95618.09;;;16.24;46.03
56038;BME280;41907;47.848;9.000;2023-03-19T13:22:43;95609.59;;;16.22;46.35
56038;BME280;41907;47.848;9.000;2023-03-19T13:25:15;95611.56;;;15.93;46.94
56038;BME280;41907;47.848;9.000;2023-03-19T13:27:51;95619.47;;;16.02;47.02
56038;BME280;41907;47.848;9.000;2023-03-19T13:30:19;95621.63;;;15.96;47.40
56038;BME280;41907;47.848;9.000;2023-03-19T13:33:20;95623.38;;;16.05;47.11
56038;BME280;41907;47.848;9.000;2023-03-19T13:35:50;95614.09;;;16.02;47.78
56038;BME280;41907;47.848;9.000;2023-03-19T13:38:43;95617.25;;;16.20;48.90
56038;BME280;41907;47.848;9.000;2023-03-19T13:44:39;95618.81;;;16.36;47.16
56038;BME280;41907;47.848;9.000;2023-03-19T13:54:53;95616.63;;;16.11;52.80
56038;BME280;41907;47.848;9.000;2023-03-19T13:57:33;95613.47;;;15.65;57.50
56038;BME280;41907;47.848;9.000;2023-03-19T14:03:04;95613.28;;;15.46;58.11
56038;BME280;41907;47.848;9.000;2023-03-19T14:05:32;95610.56;;;15.58;57.86
56038;BME280;41907;47.848;9.000;2023-03-19T14:08:00;95605.06;;;15.67;56.93
56038;BME280;41907;47.848;9.000;2023-03-19T14:10:28;95612.13;;;15.87;55.02
56038;BME280;41907;47.848;9.000;2023-03-19T14:13:04;95604.00;;;15.99;53.51
56038;BME280;41907;47.848;9.000;2023-03-19T14:15:31;95598.81;;;16.06;53.44
56038;BME280;41907;47.848;9.000;2023-03-19T14:18:02;95599.19;;;16.36;51.76
56038;BME280;41907;47.848;9.000;2023-03-19T14:21:00;95590.34;;;16.51;52.18
56038;BME280;41907;47.848;9.000;2023-03-19T14:23:27;95595.63;;;16.63;50.74
56038;BME280;41907;47.848;9.000;2023-03-19T14:26:41;95594.84;;;16.79;50.93
56038;BME280;41907;47.848;9.000;2023-03-19T14:29:03;95589.38;;;16.59;48.51
56038;BME280;41907;47.848;9.000;2023-03-19T14:36:26;95593.88;;;16.55;49.12
56038;BME280;41907;47.848;9.000;2023-03-19T14:39:25;95582.25;;;16.04;48.55
56038;BME280;41907;47.848;9.000;2023-03-19T14:42:05;95588.09;;;15.78;49.57
56038;BME280;41907;47.848;9.000;2023-03-19T14:47:25;95587.47;;;15.69;49.74
56038;BME280;41907;47.848;9.000;2023-03-19T14:50:25;95592.56;;;15.46;49.86
56038;BME280;41907;47.848;9.000;2023-03-19T14:53:21;95593.63;;;15.30;50.12